Time;durP1;ratioP1;P1;durP2;ratioP2;P2;SDS_P1;SDS_P2;PMS_P1;PMS_P2;Temp;Humidity;BMP_temperature;BMP_pressure;BME280_temperature;BME280_humidity;BME280_pressure;Samples;Min_cycle;Max_cycle;Signal;HPM_P1;HPM_P2
2022/07/15 00:01:30;;;;;;;;;6.75;6.00;;;;;24.14;36.83;101579.25;5090590;28;45985;-84
2022/07/15 00:03:56;;;;;;;;;6.00;6.00;;;;;24.02;36.84;101568.59;5091258;28;44905;-84
2022/07/15 00:06:21;;;;;;;;;6.25;6.00;;;;;24.04;37.22;101567.69;5088938;28;45210;-85
2022/07/15 00:08:46;;;;;;;;;6.00;6.00;;;;;23.91;37.32;101557.94;5090999;28;45008;-83
2022/07/15 00:11:12;;;;;;;;;5.00;4.50;;;;;24.01;37.38;101580.25;5091408;28;45940;-84
2022/07/15 00:13:37;;;;;;;;;4.50;4.00;;;;;23.94;37.38;101577.63;5073098;28;45117;-84
2022/07/15 00:16:03;;;;;;;;;6.25;6.00;;;;;23.94;37.53;101587.47;5091789;27;44894;-83
2022/07/15 00:18:28;;;;;;;;;5.00;4.00;;;;;24.00;38.04;101599.94;5090317;28;45206;-83
2022/07/15 00:20:53;;;;;;;;;4.50;4.00;;;;;23.99;37.99;101595.47;5090908;27;45418;-82
2022/07/15 00:23:19;;;;;;;;;6.00;6.00;;;;;23.78;38.01;101570.53;5092846;28;45379;-84
2022/07/15 00:25:44;;;;;;;;;6.25;5.25;;;;;23.91;38.10;101600.91;5095282;28;45045;-82
2022/07/15 00:28:09;;;;;;;;;6.00;5.00;;;;;23.96;38.01;101612.50;5094883;27;45100;-83
2022/07/15 00:30:42;;;;;;;;;6.75;5.25;;;;;23.79;37.92;101596.50;5094833;28;45455;-83
2022/07/15 00:33:09;;;;;;;;;5.25;4.75;;;;;23.65;38.09;101575.13;5094365;28;45073;-83
2022/07/15 00:35:37;;;;;;;;;5.00;4.00;;;;;23.72;38.29;101588.50;5094929;27;45008;-83
2022/07/15 00:38:03;;;;;;;;;5.00;5.00;;;;;23.63;38.16;101582.28;5092034;28;45513;-84
2022/07/15 00:40:30;;;;;;;;;5.25;5.00;;;;;23.77;38.23;101613.50;5091493;28;46252;-83
2022/07/15 00:42:55;;;;;;;;;6.75;5.50;;;;;23.68;38.66;101601.91;5092694;27;45665;-83
2022/07/15 00:45:23;;;;;;;;;5.25;5.25;;;;;23.69;38.77;101618.91;5094540;28;45116;-82
2022/07/15 00:47:56;;;;;;;;;7.00;6.00;;;;;23.61;38.61;101605.53;5075741;28;45143;-84
2022/07/15 00:50:25;;;;;;;;;4.25;4.25;;;;;23.52;39.10;101599.31;5094522;28;45668;-84
2022/07/15 00:52:55;;;;;;;;;5.50;5.50;;;;;23.61;38.82;101621.63;5094468;28;45445;-82
2022/07/15 00:55:22;;;;;;;;;5.00;5.00;;;;;23.33;38.99;101588.66;5094665;28;45041;-82
2022/07/15 00:57:51;;;;;;;;;4.75;4.00;;;;;23.36;38.84;101611.91;5093944;28;44965;-83
2022/07/15 01:00:16;;;;;;;;;6.00;5.00;;;;;23.28;39.15;101606.56;5094229;28;46034;-83
2022/07/15 01:02:49;;;;;;;;;6.25;5.50;;;;;23.24;39.17;101603.91;5092563;28;45081;-83
2022/07/15 01:05:16;;;;;;;;;5.50;5.50;;;;;23.39;39.11;101636.03;5094318;28;45002;-83
2022/07/15 01:07:42;;;;;;;;;5.00;5.00;;;;;23.18;38.94;101610.19;5094746;28;45017;-83
2022/07/15 01:10:07;;;;;;;;;6.25;6.00;;;;;23.30;39.25;101645.03;5094021;28;45913;-83
2022/07/15 01:12:37;;;;;;;;;6.00;6.00;;;;;23.25;39.19;101644.16;5075601;28;45101;-83
2022/07/15 01:15:03;;;;;;;;;12.50;12.00;;;;;23.25;39.32;101649.50;5094234;28;45087;-83
2022/07/15 01:17:28;;;;;;;;;11.75;11.00;;;;;23.15;39.70;101637.91;5073559;28;45005;-83
2022/07/15 01:19:54;;;;;;;;;13.25;11.75;;;;;23.08;39.45;101635.25;5093863;28;45575;-82
2022/07/15 01:22:19;;;;;;;;;12.50;11.25;;;;;23.15;39.61;101653.09;5070189;28;45448;-83
2022/07/15 01:24:44;;;;;;;;;14.00;13.00;;;;;23.10;39.90;101655.81;5091905;28;45084;-84
2022/07/15 01:27:10;;;;;;;;;12.00;12.00;;;;;22.97;40.17;101632.59;5092333;28;45070;-84
2022/07/15 01:29:35;;;;;;;;;12.75;12.25;;;;;22.84;39.64;101620.06;5093689;27;45850;-83
2022/07/15 01:32:00;;;;;;;;;9.75;9.00;;;;;22.95;40.14;101646.88;5092982;27;44989;-82
2022/07/15 01:34:26;;;;;;;;;12.25;10.75;;;;;22.85;40.12;101632.56;5093808;28;45063;-82
2022/07/15 01:36:51;;;;;;;;;12.00;10.00;;;;;22.88;40.09;101643.31;5074045;28;47935;-82
2022/07/15 01:39:16;;;;;;;;;9.75;8.75;;;;;22.79;40.23;101624.53;5075292;28;48200;-83
2022/07/15 01:41:42;;;;;;;;;9.00;8.50;;;;;22.79;40.36;101640.63;5070599;28;47884;-81
2022/07/15 01:44:07;;;;;;;;;8.00;7.50;;;;;22.69;40.44;101631.72;5091873;28;45190;-82
2022/07/15 01:46:32;;;;;;;;;4.75;4.75;;;;;22.71;40.51;101635.31;5092444;28;45091;-84
2022/07/15 01:51:41;;;;;;;;;5.00;5.00;;;;;22.71;40.08;101653.13;5089768;27;45166;-83
2022/07/15 01:54:07;;;;;;;;;6.00;5.00;;;;;22.66;39.98;101647.81;5091398;27;45446;-82
2022/07/15 01:56:32;;;;;;;;;5.75;5.75;;;;;22.54;39.99;101631.72;5072163;28;45124;-82
2022/07/15 01:58:58;;;;;;;;;5.00;5.00;;;;;22.70;39.58;101664.75;5092069;28;46187;-83
2022/07/15 02:01:23;;;;;;;;;3.50;3.50;;;;;22.55;39.81;101646.91;5068318;28;45319;-82
2022/07/15 02:03:48;;;;;;;;;5.00;5.00;;;;;22.50;39.48;101649.56;5074565;28;45199;-83
2022/07/15 02:06:14;;;;;;;;;5.00;4.50;;;;;22.54;39.93;101658.50;5093509;28;45296;-82
2022/07/15 02:08:42;;;;;;;;;5.75;4.50;;;;;22.36;39.99;101628.16;5092485;27;45327;-82
2022/07/15 02:11:11;;;;;;;;;4.50;4.00;;;;;22.30;39.74;101621.91;5073214;28;45535;-83
2022/07/15 02:13:36;;;;;;;;;3.75;3.75;;;;;22.33;39.57;101633.50;5092891;27;45233;-82
2022/07/15 02:16:02;;;;;;;;;5.25;5.00;;;;;22.43;39.54;101654.94;5089975;28;45364;-83
2022/07/15 02:18:28;;;;;;;;;4.00;4.00;;;;;22.18;39.72;101614.75;5092185;28;45494;-81
2022/07/15 02:20:54;;;;;;;;;4.75;4.75;;;;;22.29;39.58;101634.41;5088621;27;44991;-84
2022/07/15 02:23:19;;;;;;;;;2.75;2.75;;;;;22.25;39.91;101639.75;5092115;28;45048;-84
2022/07/15 02:25:44;;;;;;;;;5.00;4.00;;;;;22.24;40.02;101646.91;5074126;28;44993;-84
2022/07/15 02:28:10;;;;;;;;;4.75;3.75;;;;;22.23;39.74;101646.91;5074605;28;47935;-83
2022/07/15 02:30:38;;;;;;;;;4.50;4.50;;;;;22.14;39.90;101632.59;5090499;28;44823;-83
2022/07/15 02:33:04;;;;;;;;;3.75;3.75;;;;;22.14;40.07;101650.47;5091063;28;45272;-82
2022/07/15 02:35:30;;;;;;;;;4.00;4.00;;;;;22.18;40.09;101648.69;5074468;28;45191;-84
2022/07/15 02:37:55;;;;;;;;;4.50;4.50;;;;;21.99;40.11;101632.56;5092395;27;46000;-82
2022/07/15 02:40:21;;;;;;;;;4.75;4.75;;;;;21.98;40.08;101632.56;5093194;28;45068;-82
2022/07/15 02:42:52;;;;;;;;;4.75;4.25;;;;;22.00;40.31;101644.16;5091525;28;45022;-84
2022/07/15 02:45:19;;;;;;;;;5.25;5.25;;;;;22.00;40.24;101649.50;5090510;28;45248;-82
2022/07/15 02:47:45;;;;;;;;;4.00;4.00;;;;;22.03;40.55;101661.13;5088132;28;45739;-83
2022/07/15 02:50:10;;;;;;;;;4.00;3.75;;;;;21.82;40.37;101631.59;5091925;27;45062;-82
2022/07/15 02:52:35;;;;;;;;;2.50;2.50;;;;;21.93;40.37;101655.75;5092828;28;44951;-84
2022/07/15 02:55:01;;;;;;;;;4.00;4.00;;;;;21.88;40.70;101655.72;5092070;28;44950;-84
2022/07/15 02:57:27;;;;;;;;;4.00;4.00;;;;;21.90;40.51;101668.22;5092850;28;45689;-84
2022/07/15 02:59:53;;;;;;;;;3.50;3.50;;;;;21.76;40.63;101642.28;5091754;28;45140;-84
2022/07/15 03:02:18;;;;;;;;;4.00;4.00;;;;;21.61;40.58;101629.75;5072311;28;45144;-84
2022/07/15 03:04:44;;;;;;;;;4.00;4.00;;;;;21.80;41.30;101668.19;5070802;28;45281;-82
2022/07/15 03:07:10;;;;;;;;;4.00;3.25;;;;;21.75;40.85;101669.94;5070977;28;47934;-83
2022/07/15 03:09:36;;;;;;;;;4.00;4.00;;;;;21.62;40.88;101661.91;5091567;28;45247;-83
2022/07/15 03:12:02;;;;;;;;;4.50;3.25;;;;;21.69;41.25;101675.28;5091870;27;44924;-82
2022/07/15 03:14:27;;;;;;;;;4.00;4.00;;;;;21.68;41.38;101678.88;5073618;28;45271;-82
2022/07/15 03:16:52;;;;;;;;;4.00;4.00;;;;;21.70;41.11;101677.06;5091465;28;45253;-83
2022/07/15 03:19:17;;;;;;;;;4.00;2.33;;;;;21.67;41.32;101672.59;5090075;27;57399;-82
2022/07/15 03:21:43;;;;;;;;;4.25;3.75;;;;;21.69;41.15;101686.88;5073732;28;44970;-81
2022/07/15 03:24:10;;;;;;;;;2.00;2.00;;;;;21.64;41.40;101683.31;5088640;28;45240;-84
2022/07/15 03:26:35;;;;;;;;;3.25;3.25;;;;;21.62;41.66;101685.06;5073462;28;46427;-82
2022/07/15 03:29:01;;;;;;;;;4.00;4.00;;;;;21.52;40.99;101669.84;5071870;28;45456;-83
2022/07/15 03:31:26;;;;;;;;;3.00;3.00;;;;;21.41;41.46;101659.13;5069019;28;45513;-84
2022/07/15 03:33:52;;;;;;;;;4.00;4.00;;;;;21.43;41.20;101662.72;5073048;28;45088;-82
2022/07/15 03:36:17;;;;;;;;;4.00;4.00;;;;;21.39;41.39;101650.19;5088217;28;45692;-83
2022/07/15 03:38:43;;;;;;;;;4.25;3.25;;;;;21.51;41.39;101674.31;5067278;28;45407;-83
2022/07/15 03:41:08;;;;;;;;;4.00;3.00;;;;;21.40;41.74;101657.34;5090433;28;47261;-83
2022/07/15 03:43:34;;;;;;;;;4.00;3.00;;;;;21.45;41.76;101674.28;5084085;28;45236;-82
2022/07/15 03:45:59;;;;;;;;;5.00;3.25;;;;;21.36;41.31;101661.75;5071950;28;46243;-82
2022/07/15 03:48:24;;;;;;;;;3.25;3.25;;;;;21.17;41.86;101617.06;5091082;28;44882;-82
2022/07/15 03:50:49;;;;;;;;;3.00;3.00;;;;;21.40;41.69;101678.72;5091700;27;44941;-83
2022/07/15 03:53:15;;;;;;;;;4.00;2.75;;;;;21.24;41.78;101650.09;5067922;28;45470;-84
2022/07/15 03:55:40;;;;;;;;;4.00;3.00;;;;;21.23;41.52;101649.22;5072849;28;50693;-82
2022/07/15 03:58:06;;;;;;;;;4.25;4.00;;;;;21.26;41.65;101665.25;5069763;28;45692;-84
2022/07/15 04:00:31;;;;;;;;;2.75;2.50;;;;;21.24;41.59;101661.69;5090180;28;45271;-84
2022/07/15 04:02:57;;;;;;;;;3.75;3.50;;;;;21.29;41.47;101675.06;5090356;28;45037;-83
2022/07/15 04:05:22;;;;;;;;;4.00;4.00;;;;;20.98;41.47;101620.53;5071625;28;47412;-83
2022/07/15 04:07:47;;;;;;;;;2.25;2.00;;;;;21.15;41.70;101652.72;5089849;28;45083;-83
2022/07/15 04:10:14;;;;;;;;;3.25;2.75;;;;;21.15;41.92;101656.28;5091646;28;45085;-82
2022/07/15 04:12:39;;;;;;;;;3.00;2.75;;;;;21.14;41.72;101654.50;5088358;28;45387;-82
2022/07/15 04:15:05;;;;;;;;;4.00;4.00;;;;;21.15;41.52;101671.44;5089601;27;45769;-82
2022/07/15 04:17:30;;;;;;;;;5.25;4.75;;;;;21.15;41.42;101671.44;5089847;27;45562;-82
2022/07/15 04:19:56;;;;;;;;;4.00;4.00;;;;;21.06;42.00;101657.09;5087358;27;44975;-84
2022/07/15 04:22:21;;;;;;;;;4.00;4.00;;;;;21.09;41.88;101664.28;5072791;28;45167;-82
2022/07/15 04:24:46;;;;;;;;;5.75;5.50;;;;;21.17;41.69;101685.69;5089786;28;45588;-84
2022/07/15 04:27:12;;;;;;;;;3.75;3.75;;;;;21.11;41.95;101682.09;5091078;28;44978;-82
2022/07/15 04:29:37;;;;;;;;;2.75;2.75;;;;;21.15;41.98;101684.78;5086623;28;45456;-83
2022/07/15 04:32:03;;;;;;;;;5.00;5.00;;;;;21.04;42.42;101672.25;5090315;28;45172;-84
2022/07/15 04:34:28;;;;;;;;;3.75;3.00;;;;;21.06;42.08;101672.25;5087640;27;46704;-82
2022/07/15 04:36:53;;;;;;;;;4.00;4.00;;;;;21.08;42.07;101675.81;5071842;28;45183;-83
2022/07/15 04:39:19;;;;;;;;;4.00;4.00;;;;;21.02;41.68;101665.09;5090791;28;44946;-84
2022/07/15 04:41:44;;;;;;;;;4.00;4.00;;;;;21.13;42.07;101688.38;5088258;28;45229;-82
2022/07/15 04:44:09;;;;;;;;;3.50;3.50;;;;;21.13;42.01;101682.09;5088169;28;46955;-84
2022/07/15 04:46:35;;;;;;;;;3.00;3.00;;;;;20.98;41.99;101657.94;5086711;28;45619;-83
2022/07/15 04:51:44;;;;;;;;;5.50;4.25;;;;;20.87;42.35;101650.75;5089838;28;45033;-84
2022/07/15 04:54:09;;;;;;;;;3.00;2.50;;;;;21.05;42.10;101682.06;5072039;28;47406;-82
2022/07/15 04:56:35;;;;;;;;;3.25;3.25;;;;;20.89;42.12;101663.25;5090780;28;45014;-82
2022/07/15 04:59:00;;;;;;;;;4.50;4.50;;;;;21.01;42.44;101682.03;5089470;28;45390;-82
2022/07/15 05:01:26;;;;;;;;;5.00;4.50;;;;;20.92;41.87;101674.84;5087443;28;45169;-82
2022/07/15 05:03:51;;;;;;;;;6.00;5.00;;;;;20.93;42.20;101684.63;5070399;28;46875;-82
2022/07/15 05:06:16;;;;;;;;;4.75;4.25;;;;;20.91;42.64;101682.84;5090451;28;44888;-83
2022/07/15 05:08:41;;;;;;;;;6.00;6.00;;;;;20.76;42.48;101652.47;5092091;27;45040;-82
2022/07/15 05:11:07;;;;;;;;;4.25;3.75;;;;;20.93;42.36;101687.31;5094109;28;44919;-82
2022/07/15 05:13:32;;;;;;;;;4.00;4.00;;;;;20.97;42.82;101694.47;5094171;27;45420;-83
2022/07/15 05:15:57;;;;;;;;;4.00;3.75;;;;;21.06;42.61;101718.59;5093743;28;44898;-84
2022/07/15 05:18:23;;;;;;;;;3.00;3.00;;;;;21.06;42.74;101718.59;5093506;27;45059;-84
2022/07/15 05:20:48;;;;;;;;;4.00;4.00;;;;;20.72;42.93;101663.13;5072263;28;45334;-82
2022/07/15 05:23:16;;;;;;;;;5.50;5.00;;;;;20.90;42.81;101686.41;5091971;27;47419;-82
2022/07/15 05:25:42;;;;;;;;;6.00;4.75;;;;;20.83;42.79;101680.09;5075682;28;45510;-84
2022/07/15 05:28:08;;;;;;;;;4.75;4.00;;;;;21.00;43.06;101706.97;5093117;28;45088;-83
2022/07/15 05:30:36;;;;;;;;;5.00;4.25;;;;;20.81;43.31;101680.09;5094060;28;45126;-82
2022/07/15 05:33:02;;;;;;;;;5.25;5.00;;;;;20.96;43.14;101700.69;5073788;28;46706;-83
2022/07/15 05:35:27;;;;;;;;;4.75;4.75;;;;;20.99;42.98;101708.75;5093155;28;45000;-84
2022/07/15 05:37:52;;;;;;;;;6.00;5.00;;;;;20.86;43.16;101688.16;5093829;28;45147;-82
2022/07/15 05:40:18;;;;;;;;;7.25;5.00;;;;;20.97;43.14;101713.19;5074424;28;45147;-83
2022/07/15 05:42:43;;;;;;;;;4.00;4.00;;;;;21.06;43.23;101729.28;5093239;27;45232;-82
2022/07/15 05:45:09;;;;;;;;;4.75;4.75;;;;;21.01;43.12;101722.13;5091208;28;45084;-82
2022/07/15 05:47:35;;;;;;;;;3.50;3.50;;;;;21.08;43.67;101732.88;5075001;28;44990;-83
2022/07/15 05:50:00;;;;;;;;;5.00;4.00;;;;;21.13;43.20;101739.16;5074153;28;45222;-82
2022/07/15 05:52:25;;;;;;;;;6.50;6.00;;;;;21.07;43.32;101719.47;5092394;28;45278;-82
2022/07/15 05:54:51;;;;;;;;;5.75;5.25;;;;;21.09;43.48;101723.09;5073742;28;44945;-82
2022/07/15 05:57:17;;;;;;;;;5.00;4.00;;;;;21.21;43.46;101749.00;5092946;27;45067;-82
2022/07/15 05:59:43;;;;;;;;;4.75;4.00;;;;;21.11;43.51;101730.22;5091402;28;44909;-84
2022/07/15 06:02:08;;;;;;;;;5.25;5.00;;;;;21.26;43.17;101749.91;5092618;27;45443;-82
2022/07/15 06:04:33;;;;;;;;;6.00;5.50;;;;;21.11;43.35;101732.00;5090776;28;45213;-84
2022/07/15 06:06:59;;;;;;;;;7.25;6.75;;;;;21.15;43.65;101743.63;5071821;28;45254;-83
2022/07/15 06:09:24;;;;;;;;;4.25;4.25;;;;;21.07;43.56;101733.75;5093378;28;44992;-81
2022/07/15 06:11:49;;;;;;;;;4.50;4.50;;;;;21.12;43.55;101736.44;5091968;28;45641;-83
2022/07/15 06:14:15;;;;;;;;;5.50;4.00;;;;;21.16;44.02;101748.97;5090733;28;44913;-82
2022/07/15 06:16:41;;;;;;;;;5.75;5.00;;;;;21.11;43.83;101735.56;5092556;27;44944;-82
2022/07/15 06:19:08;;;;;;;;;5.00;5.00;;;;;21.13;43.83;101733.81;5092372;27;44992;-82
2022/07/15 06:21:35;;;;;;;;;5.75;5.00;;;;;21.29;43.58;101757.97;5089969;28;45664;-84
2022/07/15 06:24:00;;;;;;;;;4.25;4.25;;;;;21.26;43.48;101761.50;5092063;28;45173;-84
2022/07/15 06:26:25;;;;;;;;;5.50;4.50;;;;;21.27;43.79;101752.59;5093052;28;45016;-82
2022/07/15 06:28:50;;;;;;;;;6.00;5.00;;;;;21.30;43.61;101744.63;5074342;28;53335;-82
2022/07/15 06:31:16;;;;;;;;;4.75;4.75;;;;;21.28;43.83;101732.09;5070555;28;47098;-83
2022/07/15 06:33:41;;;;;;;;;5.00;5.00;;;;;21.44;43.47;101765.25;5072782;28;51396;-83
2022/07/15 06:36:07;;;;;;;;;4.75;4.25;;;;;21.49;44.08;101775.06;5093266;28;44981;-82
2022/07/15 06:38:32;;;;;;;;;4.50;4.25;;;;;21.41;44.09;101738.47;5093328;28;45156;-82
2022/07/15 06:40:58;;;;;;;;;4.50;4.50;;;;;21.47;43.76;101747.41;5092756;28;45794;-83
2022/07/15 06:43:23;;;;;;;;;5.75;5.25;;;;;21.63;43.74;101776.06;5092006;27;45015;-82
2022/07/15 06:45:49;;;;;;;;;4.50;4.50;;;;;21.59;43.91;101770.69;5092402;27;44954;-84
2022/07/15 06:48:15;;;;;;;;;5.25;4.50;;;;;21.60;43.59;101764.44;5092091;28;45099;-82
2022/07/15 06:50:40;;;;;;;;;6.00;5.00;;;;;21.65;43.31;101781.41;5093104;28;45958;-82
2022/07/15 06:53:07;;;;;;;;;5.25;4.75;;;;;21.53;43.47;101749.25;5090659;28;45350;-83
2022/07/15 06:55:32;;;;;;;;;4.00;4.00;;;;;21.46;43.51;101736.69;5091501;28;48126;-82
2022/07/15 06:57:57;;;;;;;;;6.50;6.00;;;;;21.54;43.24;101754.59;5089490;28;44954;-83
2022/07/15 07:00:23;;;;;;;;;4.75;4.75;;;;;21.42;43.29;101724.19;5091659;28;54794;-83
2022/07/15 07:02:49;;;;;;;;;5.25;5.00;;;;;21.45;43.63;101724.22;5073253;28;44972;-83
2022/07/15 07:05:14;;;;;;;;;4.25;4.00;;;;;21.80;43.77;101769.88;5093086;28;45217;-84
2022/07/15 07:07:40;;;;;;;;;4.75;4.75;;;;;21.65;43.39;101738.59;5092468;28;45099;-83
2022/07/15 07:10:05;;;;;;;;;5.00;5.00;;;;;21.91;42.95;101770.81;5089924;27;45412;-82
2022/07/15 07:12:31;;;;;;;;;4.00;4.00;;;;;21.94;43.13;101768.16;5091812;28;44966;-84
2022/07/15 07:14:56;;;;;;;;;5.25;5.00;;;;;21.83;43.16;101753.84;5091310;28;45220;-82
2022/07/15 07:17:22;;;;;;;;;4.75;4.75;;;;;21.82;42.67;101744.00;5091227;28;45172;-83
2022/07/15 07:19:48;;;;;;;;;4.75;4.25;;;;;21.92;42.76;101769.03;5092073;28;45121;-83
2022/07/15 07:22:13;;;;;;;;;5.25;5.25;;;;;21.94;42.39;101770.84;5073691;28;45325;-82
2022/07/15 07:24:38;;;;;;;;;4.75;4.00;;;;;21.90;42.46;101761.00;5091773;28;45018;-82
2022/07/15 07:27:05;;;;;;;;;5.00;4.00;;;;;21.83;42.60;101748.50;5092077;28;45117;-83
2022/07/15 07:29:31;;;;;;;;;4.25;4.00;;;;;21.72;42.75;101718.09;5091827;27;45636;-83
2022/07/15 07:31:56;;;;;;;;;5.75;5.75;;;;;21.93;42.47;101744.09;5072394;28;45481;-84
2022/07/15 07:34:22;;;;;;;;;3.75;3.75;;;;;21.85;42.42;101722.63;5090588;28;45013;-83
2022/07/15 07:36:48;;;;;;;;;5.00;4.00;;;;;22.07;42.14;101763.75;5091846;28;44902;-82
2022/07/15 07:39:14;;;;;;;;;4.25;3.75;;;;;21.96;42.33;101741.41;5091368;28;45734;-83
2022/07/15 07:41:40;;;;;;;;;4.00;4.00;;;;;22.18;42.29;101767.41;5091645;28;45060;-83
2022/07/15 07:44:06;;;;;;;;;5.00;5.00;;;;;22.18;42.33;101756.69;5091841;28;45068;-84
2022/07/15 07:46:31;;;;;;;;;5.00;5.00;;;;;22.25;42.34;101757.59;5088107;28;45305;-83
2022/07/15 07:48:57;;;;;;;;;5.50;5.50;;;;;22.11;41.93;101730.75;5069139;28;47365;-82
2022/07/15 07:51:23;;;;;;;;;5.75;4.75;;;;;22.12;41.68;101705.81;5090798;28;45083;-82
2022/07/15 07:53:48;;;;;;;;;3.25;3.25;;;;;22.23;41.49;101721.88;5073408;28;45045;-82
2022/07/15 07:56:13;;;;;;;;;4.00;3.75;;;;;22.40;41.80;101752.25;5091858;28;45042;-84
2022/07/15 07:58:39;;;;;;;;;4.75;4.00;;;;;22.33;41.34;101729.06;5090706;28;45502;-82
2022/07/15 08:01:04;;;;;;;;;4.50;4.50;;;;;22.31;41.19;101722.78;5091022;28;44890;-82
2022/07/15 08:03:30;;;;;;;;;5.00;4.00;;;;;22.34;40.90;101728.16;5090764;28;45066;-83
2022/07/15 08:05:55;;;;;;;;;5.00;4.00;;;;;22.30;40.66;101713.84;5072309;28;45553;-82
2022/07/15 08:08:22;;;;;;;;;4.25;3.50;;;;;22.25;40.75;101696.00;5072892;28;47133;-81
2022/07/15 08:10:51;;;;;;;;;4.75;3.25;;;;;22.39;40.24;101721.00;5068325;28;45391;-83
2022/07/15 08:13:18;;;;;;;;;4.00;4.00;;;;;22.38;40.60;101712.09;5091185;28;45174;-83
2022/07/15 08:15:44;;;;;;;;;5.00;5.00;;;;;22.32;40.25;101703.16;5085796;28;45141;-83
2022/07/15 08:18:10;;;;;;;;;3.75;3.75;;;;;22.55;40.23;101730.84;5090727;28;45267;-83
2022/07/15 08:20:36;;;;;;;;;4.00;3.50;;;;;22.44;39.83;101721.91;5089112;28;44938;-82
2022/07/15 08:23:02;;;;;;;;;4.25;4.25;;;;;22.54;40.48;101726.38;5091013;28;44925;-84
2022/07/15 08:25:30;;;;;;;;;4.75;4.75;;;;;22.64;40.10;101727.28;5091015;28;45005;-82
2022/07/15 08:27:56;;;;;;;;;3.00;2.50;;;;;22.63;39.56;101722.84;5090104;28;46078;-82
2022/07/15 08:30:22;;;;;;;;;3.00;2.50;;;;;22.70;39.58;101731.75;5072891;28;45564;-82
2022/07/15 08:32:48;;;;;;;;;3.25;2.00;;;;;22.64;39.56;101719.25;5072134;28;45078;-83
2022/07/15 08:35:13;;;;;;;;;4.00;4.00;;;;;22.75;39.61;101720.13;5089337;28;45133;-84
2022/07/15 08:37:39;;;;;;;;;3.25;2.75;;;;;22.79;39.22;101723.72;5090564;28;45747;-82
2022/07/15 08:40:07;;;;;;;;;4.00;4.00;;;;;22.89;38.70;101730.91;5090819;28;45109;-83
2022/07/15 08:42:33;;;;;;;;;3.50;3.50;;;;;22.66;38.75;101696.94;5091127;27;44904;-82
2022/07/15 08:44:58;;;;;;;;;3.00;3.00;;;;;22.83;38.68;101731.75;5076136;28;45181;-83
2022/07/15 08:47:25;;;;;;;;;3.25;3.00;;;;;22.73;38.75;101699.59;5094009;28;45295;-83
2022/07/15 08:49:56;;;;;;;;;4.25;3.25;;;;;22.87;39.10;101714.78;5075781;28;45497;-83
2022/07/15 08:52:23;;;;;;;;;3.00;3.00;;;;;22.94;38.68;101721.06;5094455;28;45111;-83
2022/07/15 08:54:49;;;;;;;;;3.00;3.00;;;;;22.99;38.37;101732.69;5092934;28;45188;-83
2022/07/15 08:57:14;;;;;;;;;3.00;3.00;;;;;22.78;38.66;101684.41;5091942;28;46991;-83
2022/07/15 08:59:41;;;;;;;;;3.00;3.00;;;;;22.95;38.32;101713.91;5090699;28;45468;-81
2022/07/15 09:02:06;;;;;;;;;4.00;4.00;;;;;22.86;38.65;101693.34;5094153;27;45049;-82
2022/07/15 09:04:32;;;;;;;;;4.00;3.50;;;;;22.98;37.99;101708.56;5092921;27;45122;-82
2022/07/15 09:07:03;;;;;;;;;4.50;4.25;;;;;23.13;38.15;101738.94;5093425;28;45529;-82
2022/07/15 09:09:37;;;;;;;;;4.00;3.00;;;;;23.01;38.14;101698.72;5092469;27;45458;-82
2022/07/15 09:12:07;;;;;;;;;4.00;4.00;;;;;23.06;38.49;101713.03;5094116;28;45103;-82
2022/07/15 09:14:36;;;;;;;;;4.50;4.00;;;;;23.10;38.46;101701.41;5094764;28;45135;-81
2022/07/15 09:17:10;;;;;;;;;4.00;3.50;;;;;23.26;38.32;101723.72;5073247;28;47145;-80
2022/07/15 09:20:01;;;;;;;;;3.00;3.00;;;;;23.25;39.08;101704.91;5093950;28;45166;-83
2022/07/15 09:22:30;;;;;;;;;4.00;4.00;;;;;23.40;38.28;101729.06;5084217;28;45209;-82
2022/07/15 09:25:05;;;;;;;;;5.00;5.00;;;;;23.47;38.42;101722.75;5073817;28;45190;-83
2022/07/15 09:27:39;;;;;;;;;4.75;4.00;;;;;23.47;38.43;101708.47;5075625;28;47457;-83
2022/07/15 09:36:13;;;;;;;;;3.00;3.00;;;;;23.58;37.45;101710.19;5093709;28;44855;-82
2022/07/15 09:38:44;;;;;;;;;5.00;5.00;;;;;23.58;37.29;101712.88;5091710;27;45324;-83
2022/07/15 09:41:28;;;;;;;;;4.50;4.50;;;;;23.60;36.93;101704.84;5074867;28;45236;-82
2022/07/15 09:43:58;;;;;;;;;5.25;5.25;;;;;23.62;36.90;101709.28;5090611;28;44890;-83
2022/07/15 09:46:27;;;;;;;;;6.00;6.00;;;;;23.60;37.14;101705.72;5071174;28;45490;-82
2022/07/15 09:48:53;;;;;;;;;6.00;5.75;;;;;23.54;36.87;101689.63;5092437;28;45342;-82
2022/07/15 09:51:20;;;;;;;;;5.00;4.00;;;;;23.51;36.58;101665.50;5072738;28;45428;-82
2022/07/15 09:53:46;;;;;;;;;3.50;3.50;;;;;23.54;36.26;101661.91;5093600;27;44982;-82
2022/07/15 09:56:22;;;;;;;;;3.00;3.00;;;;;23.51;36.12;101656.56;5074371;28;45067;-82
2022/07/15 09:58:48;;;;;;;;;4.00;2.50;;;;;23.71;35.51;101689.59;5093557;28;45503;-84
2022/07/15 10:01:14;;;;;;;;;2.00;2.00;;;;;23.64;36.07;101666.34;5075251;28;45010;-82
2022/07/15 10:03:39;;;;;;;;;2.75;2.75;;;;;23.83;35.38;101686.84;5091603;27;44852;-82
2022/07/15 10:06:06;;;;;;;;;2.75;2.75;;;;;23.83;35.22;101677.91;5072835;28;45302;-83
2022/07/15 10:08:33;;;;;;;;;2.00;2.00;;;;;24.05;35.09;101710.94;5090916;28;46541;-82
2022/07/15 10:10:59;;;;;;;;;1.00;1.00;;;;;24.06;34.58;101713.59;5093296;28;45043;-83
2022/07/15 10:13:43;;;;;;;;;1.50;1.50;;;;;24.04;34.84;101701.06;5092226;27;45084;-81
2022/07/15 10:16:23;;;;;;;;;2.75;1.50;;;;;23.93;34.89;101669.78;5092766;28;45350;-83
2022/07/15 10:19:14;;;;;;;;;3.00;2.50;;;;;24.18;34.06;101705.44;5092799;28;45410;-82
2022/07/15 10:22:17;;;;;;;;;1.00;1.00;;;;;24.25;33.82;101702.75;5088652;28;45289;-82
2022/07/15 10:24:57;;;;;;;;;1.00;1.00;;;;;24.28;33.92;101703.59;5091660;28;45150;-83
2022/07/15 10:27:22;;;;;;;;;1.75;1.00;;;;;24.34;33.37;101698.19;5093604;28;45037;-82
2022/07/15 10:29:48;;;;;;;;;2.00;2.00;;;;;24.21;33.49;101656.19;5092950;28;45428;-83
2022/07/15 10:32:13;;;;;;;;;1.25;1.25;;;;;24.31;34.09;101674.03;5091890;28;45031;-82
2022/07/15 10:34:39;;;;;;;;;2.00;1.50;;;;;24.50;33.48;101682.00;5093022;28;45096;-83
2022/07/15 10:37:13;;;;;;;;;2.00;1.00;;;;;24.49;32.85;101674.84;5089977;28;45091;-82
2022/07/15 10:39:50;;;;;;;;;1.00;1.00;;;;;24.53;32.79;101681.94;5091081;28;50600;-82
2022/07/15 10:42:16;;;;;;;;;2.50;2.00;;;;;24.41;32.67;101654.28;5091669;28;45043;-83
2022/07/15 10:45:04;;;;;;;;;4.00;3.00;;;;;24.56;32.56;101679.25;5092074;27;45246;-82
2022/07/15 10:47:30;;;;;;;;;1.50;1.00;;;;;24.49;32.49;101648.84;5091849;28;45015;-82
2022/07/15 10:49:55;;;;;;;;;3.00;2.00;;;;;24.70;32.29;101672.84;5089180;28;46026;-82
2022/07/15 10:52:31;;;;;;;;;1.25;1.25;;;;;24.62;32.22;101645.13;5090811;28;45163;-82
2022/07/15 10:54:59;;;;;;;;;2.00;2.00;;;;;24.82;32.63;101665.56;5090529;28;45113;-82
2022/07/15 10:57:40;;;;;;;;;2.00;2.00;;;;;24.89;31.95;101675.38;5090833;27;44945;-82
2022/07/15 11:00:24;;;;;;;;;1.00;1.00;;;;;24.83;31.83;101646.75;5092728;28;45861;-82
2022/07/15 11:03:09;;;;;;;;;1.00;1.00;;;;;25.00;31.30;101665.38;5089108;28;45465;-82
2022/07/15 11:06:00;;;;;;;;;1.25;1.25;;;;;24.89;31.73;101635.91;5091059;28;45114;-82
2022/07/15 11:08:31;;;;;;;;;1.75;1.50;;;;;25.11;31.31;101674.25;5091827;28;44890;-82
2022/07/15 11:11:17;;;;;;;;;2.00;2.00;;;;;25.13;31.43;101667.09;5090565;28;45354;-82
2022/07/15 11:13:45;;;;;;;;;1.00;1.00;;;;;25.19;31.37;101647.28;5090266;28;46322;-82
2022/07/15 11:16:17;;;;;;;;;2.00;2.00;;;;;25.24;31.00;101658.00;5090642;28;45099;-83
2022/07/15 11:18:59;;;;;;;;;1.50;1.50;;;;;25.14;30.95;101633.00;5089704;28;45164;-82
2022/07/15 11:21:25;;;;;;;;;1.75;1.00;;;;;25.24;30.32;101629.28;5092232;27;45525;-82
2022/07/15 11:23:53;;;;;;;;;2.00;1.00;;;;;25.31;30.53;101625.59;5091655;28;45046;-82
2022/07/15 11:26:19;;;;;;;;;1.25;1.25;;;;;25.44;30.76;101632.63;5092077;28;45070;-82
2022/07/15 11:29:02;;;;;;;;;2.00;1.50;;;;;25.46;31.09;101614.63;5092319;28;45031;-82
2022/07/15 11:31:40;;;;;;;;;2.00;2.00;;;;;25.67;30.37;101631.44;5086071;27;45647;-83
2022/07/15 11:34:06;;;;;;;;;2.50;2.50;;;;;25.83;30.06;101641.13;5089272;27;45413;-82
2022/07/15 11:36:31;;;;;;;;;1.00;1.00;;;;;25.84;30.02;101632.09;5092100;28;45043;-83